createdAt,value
2022-10-15T00:12:53.525Z,12.4
2022-10-15T00:22:54.121Z,12.4
2022-10-15T00:32:55.144Z,12.4
2022-10-15T00:42:55.463Z,12.5
2022-10-15T00:52:56.511Z,12.5
2022-10-15T01:02:57.576Z,12.5
2022-10-15T01:12:58.420Z,12.5
2022-10-15T01:22:58.750Z,12.6
2022-10-15T01:32:59.821Z,12.6
2022-10-15T01:43:00.392Z,12.6
2022-10-15T01:53:01.308Z,12.6
2022-10-15T02:03:01.629Z,12.5
2022-10-15T02:13:01.876Z,12.5
2022-10-15T02:23:02.738Z,12.5
2022-10-15T02:33:02.937Z,12.4
2022-10-15T02:43:03.225Z,12.5
2022-10-15T02:53:03.709Z,12.5
2022-10-15T03:03:04.226Z,12.5
2022-10-15T03:13:05.069Z,12.5
2022-10-15T03:23:05.232Z,12.5
2022-10-15T03:33:05.950Z,12.5
2022-10-15T03:43:06.526Z,12.5
2022-10-15T03:53:07.053Z,12.5
2022-10-15T04:03:07.400Z,12.4
2022-10-15T04:13:08.256Z,12.4
2022-10-15T04:23:08.526Z,12.3
2022-10-15T04:33:08.711Z,12.3
2022-10-15T04:43:09.024Z,12.3
2022-10-15T04:53:09.873Z,12.3
2022-10-15T05:03:10.414Z,12.4
2022-10-15T05:13:10.990Z,12.4
2022-10-15T05:23:11.370Z,12.5
2022-10-15T05:33:12.101Z,12.6
2022-10-15T05:43:12.773Z,12.6
2022-10-15T05:53:13.220Z,12.6
2022-10-15T06:03:14.144Z,12.6
2022-10-15T06:13:14.253Z,12.5
2022-10-15T06:23:15.054Z,12.6
2022-10-15T06:33:15.629Z,12.6
2022-10-15T06:43:16.079Z,12.6
2022-10-15T06:53:16.806Z,12.6
2022-10-15T07:03:17.225Z,12.7
2022-10-15T07:13:17.394Z,12.8
2022-10-15T07:43:18.782Z,13.1
2022-10-15T07:53:20.539Z,13.2
2022-10-15T08:03:19.825Z,13.5
2022-10-15T08:13:20.876Z,14.2
2022-10-15T08:23:21.259Z,14.5
2022-10-15T08:33:22.137Z,14.3
2022-10-15T08:43:22.342Z,14.6
2022-10-15T08:53:23.034Z,14.7
2022-10-15T09:03:23.226Z,15.3
2022-10-15T09:13:23.508Z,15.3
2022-10-15T09:23:23.639Z,16.2
2022-10-15T09:33:23.950Z,16.7
2022-10-15T09:43:24.641Z,16.5
2022-10-15T09:53:26.028Z,16.4
2022-10-15T10:03:26.055Z,16.4
2022-10-15T10:13:26.187Z,17
2022-10-15T10:23:26.992Z,17.1
2022-10-15T10:33:27.434Z,17.2
2022-10-15T10:53:28.727Z,17.1
2022-10-15T11:03:29.670Z,17.2
2022-10-15T11:13:31.145Z,16.9
2022-10-15T11:23:30.015Z,16.4
2022-10-15T11:33:30.372Z,15.9
2022-10-15T11:53:31.670Z,15.6
2022-10-15T12:03:32.687Z,15.6
2022-10-15T12:13:32.955Z,15.5
2022-10-15T12:23:33.212Z,15.6
2022-10-15T12:33:33.328Z,15.7
2022-10-15T12:43:34.000Z,16
2022-10-15T12:53:34.595Z,16.1
2022-10-15T13:03:34.972Z,16.2
2022-10-15T13:23:35.884Z,16.9
2022-10-15T13:33:36.049Z,17.1
2022-10-15T13:53:36.879Z,17.2
2022-10-15T14:13:38.615Z,17.7
2022-10-15T14:23:38.942Z,18
2022-10-15T14:33:39.946Z,18.2
2022-10-15T14:43:40.901Z,18.4
2022-10-15T15:03:41.943Z,18.3
2022-10-15T15:33:43.609Z,18
2022-10-15T16:13:46.130Z,17.5
2022-10-15T16:33:47.337Z,17.3
2022-10-15T16:53:48.845Z,16.6
2022-10-15T17:03:49.305Z,16.2
2022-10-15T17:13:49.680Z,16
2022-10-15T17:33:50.448Z,15.8
2022-10-15T17:43:51.332Z,15.7
2022-10-15T18:03:52.751Z,15.5
2022-10-15T18:13:53.470Z,15.2
2022-10-15T18:23:53.741Z,15
2022-10-15T18:43:55.066Z,14.4
2022-10-15T18:53:55.176Z,14.3
2022-10-15T19:13:56.494Z,13.6
2022-10-15T19:33:57.400Z,13.4
2022-10-15T20:04:01.534Z,12.6
2022-10-15T20:14:00.308Z,12.4
2022-10-15T20:24:00.748Z,12.3
2022-10-15T20:34:01.554Z,12.2
2022-10-15T20:54:03.151Z,12.5
2022-10-15T21:04:04.151Z,12.7
2022-10-15T21:14:04.365Z,12.9
2022-10-15T21:34:05.874Z,13.6
2022-10-15T21:44:06.588Z,13.7
2022-10-15T21:54:07.242Z,13.5
2022-10-15T22:04:07.967Z,13.4
2022-10-15T22:14:08.427Z,13.3
2022-10-15T22:24:09.299Z,13.2
2022-10-15T22:44:10.588Z,13.1
2022-10-15T22:54:11.238Z,13.1
2022-10-15T23:04:11.823Z,13.3
2022-10-15T23:14:12.128Z,13.2
2022-10-15T23:24:12.456Z,13.3
2022-10-15T23:34:12.892Z,13.3
2022-10-15T23:44:13.030Z,13.2
2022-10-15T23:54:13.487Z,13.1
